Time;durP1;ratioP1;P1;durP2;ratioP2;P2;SDS_P1;SDS_P2;PMS_P1;PMS_P2;Temp;Humidity;BMP_temperature;BMP_pressure;BME280_temperature;BME280_humidity;BME280_pressure;Samples;Min_cycle;Max_cycle;Signal;HPM_P1;HPM_P2
2022/04/29 00:02:08;;;;;;;;;22.33;19.67;;;;;18.74;39.98;102227.91;5132761;27;45501;-73
2022/04/29 00:04:35;;;;;;;;;17.33;15.00;;;;;18.60;39.70;102202.41;5138862;27;45514;-71
2022/04/29 00:07:01;;;;;;;;;20.33;17.00;;;;;18.73;39.93;102218.22;5132843;27;46042;-71
2022/04/29 00:09:27;;;;;;;;;23.33;19.33;;;;;18.70;39.82;102223.53;5138654;27;46695;-73
2022/04/29 00:11:53;;;;;;;;;17.33;16.33;;;;;18.62;40.22;102207.66;5121772;27;46078;-74
2022/04/29 00:14:25;;;;;;;;;18.33;17.33;;;;;18.64;39.63;102217.38;5138180;27;45848;-68
2022/04/29 00:16:51;;;;;;;;;20.00;16.33;;;;;18.57;40.16;102214.78;5120136;27;47849;-67
2022/04/29 00:19:17;;;;;;;;;20.33;16.33;;;;;18.62;40.28;102220.94;5138526;27;45403;-68
2022/04/29 00:21:43;;;;;;;;;16.33;15.00;;;;;18.60;40.03;102209.44;5140067;27;45518;-70
2022/04/29 00:24:12;;;;;;;;;19.00;16.33;;;;;18.58;40.07;102209.47;5139904;27;45352;-69
2022/04/29 00:26:39;;;;;;;;;19.67;18.67;;;;;18.57;40.06;102204.16;5138474;27;45588;-71
2022/04/29 00:29:06;;;;;;;;;19.33;19.00;;;;;18.52;39.82;102204.22;5138672;27;45526;-71
2022/04/29 00:31:32;;;;;;;;;20.33;18.00;;;;;18.52;40.39;102203.34;5139846;27;45894;-74
2022/04/29 00:33:59;;;;;;;;;16.33;14.67;;;;;18.39;40.49;102176.03;5141162;27;45320;-70
2022/04/29 00:36:25;;;;;;;;;20.33;18.00;;;;;18.51;40.71;102197.16;5139541;27;46298;-73
2022/04/29 00:38:50;;;;;;;;;16.33;15.67;;;;;18.19;40.64;102144.34;5139276;27;45559;-73
2022/04/29 00:41:17;;;;;;;;;19.67;17.00;;;;;18.35;40.48;102164.53;5138679;27;45452;-68
2022/04/29 00:43:43;;;;;;;;;22.00;18.67;;;;;18.40;40.63;102169.81;5140182;27;45335;-74
2022/04/29 00:46:08;;;;;;;;;20.33;19.67;;;;;18.46;40.80;102184.78;5139889;27;45408;-72
2022/04/29 00:48:34;;;;;;;;;22.50;20.00;;;;;18.44;41.00;102185.69;5138271;27;45525;-74
2022/04/29 00:51:00;;;;;;;;;24.33;22.33;;;;;18.43;40.75;102186.56;5138814;27;45463;-74
2022/04/29 00:53:28;;;;;;;;;20.67;19.33;;;;;18.41;40.73;102182.19;5140129;27;45375;-72
2022/04/29 00:55:56;;;;;;;;;16.67;14.67;;;;;18.39;40.92;102181.34;5147954;27;45238;-73
2022/04/29 00:58:31;;;;;;;;;22.33;19.33;;;;;18.26;40.66;102155.78;5122151;27;45405;-67
2022/04/29 01:00:58;;;;;;;;;19.67;19.33;;;;;18.36;40.98;102178.69;5138794;27;45522;-71
2022/04/29 01:03:28;;;;;;;;;20.33;18.33;;;;;18.30;41.16;102170.78;5138787;27;45541;-70
2022/04/29 01:05:53;;;;;;;;;22.33;16.67;;;;;18.25;41.16;102177.88;5138471;27;46294;-71
2022/04/29 01:08:19;;;;;;;;;23.67;19.67;;;;;18.33;40.98;102178.72;5137496;27;45376;-74
2022/04/29 01:10:46;;;;;;;;;21.67;19.67;;;;;18.29;41.03;102166.34;5132516;27;45328;-75
2022/04/29 01:13:12;;;;;;;;;22.67;21.00;;;;;18.26;41.13;102175.22;5103221;27;45643;-74
2022/04/29 01:15:38;;;;;;;;;19.00;18.00;;;;;18.20;41.07;102160.25;5137993;27;45339;-74
2022/04/29 01:18:06;;;;;;;;;25.00;20.67;;;;;18.23;41.13;102164.66;5140679;27;45438;-68
2022/04/29 01:20:33;;;;;;;;;21.67;19.00;;;;;18.21;40.99;102162.00;5140832;27;45240;-72
2022/04/29 01:23:03;;;;;;;;;24.00;24.00;;;;;18.17;41.04;102167.31;5122599;27;45709;-70
2022/04/29 01:25:30;;;;;;;;;24.25;22.75;;;;;18.08;41.05;102159.44;5125394;27;46474;-70
2022/04/29 01:27:56;;;;;;;;;25.67;20.67;;;;;17.97;41.40;102140.94;5136793;27;45474;-67
2022/04/29 01:30:22;;;;;;;;;20.00;17.00;;;;;18.08;41.36;102156.78;5141084;27;45433;-72
2022/04/29 01:32:47;;;;;;;;;22.50;16.00;;;;;18.05;41.52;102149.72;5122032;27;45618;-68
2022/04/29 01:35:14;;;;;;;;;18.25;17.00;;;;;18.01;41.45;102148.00;5140213;27;45376;-71
2022/04/29 01:37:41;;;;;;;;;24.00;22.67;;;;;18.03;41.25;102148.84;5140534;27;45286;-68
2022/04/29 01:40:09;;;;;;;;;23.00;20.67;;;;;18.03;41.69;102151.50;5140284;27;45299;-70
2022/04/29 01:42:36;;;;;;;;;22.00;20.67;;;;;17.99;41.77;102150.66;5140319;27;45335;-72
2022/04/29 01:45:02;;;;;;;;;20.75;19.50;;;;;18.00;41.55;102162.13;5139819;27;46440;-67
2022/04/29 01:47:28;;;;;;;;;27.25;25.25;;;;;17.91;41.59;102148.94;5139961;27;45446;-70
2022/04/29 01:49:53;;;;;;;;;24.50;21.00;;;;;17.97;41.49;102156.88;5139369;27;45304;-69
2022/04/29 01:52:19;;;;;;;;;18.00;18.00;;;;;17.88;41.59;102147.19;5139851;27;45478;-73
2022/04/29 01:54:45;;;;;;;;;18.25;15.50;;;;;17.95;41.66;102163.94;5139361;27;45947;-69
2022/04/29 01:57:11;;;;;;;;;25.50;20.00;;;;;17.84;41.71;102140.13;5139628;27;45396;-72
2022/04/29 01:59:36;;;;;;;;;24.33;21.33;;;;;17.93;41.67;102160.41;5139799;27;45454;-70
2022/04/29 02:02:03;;;;;;;;;22.25;19.75;;;;;17.79;41.58;102137.47;5139426;27;45584;-72
2022/04/29 02:04:29;;;;;;;;;19.25;18.75;;;;;17.89;41.48;102159.56;5139262;27;46215;-72
2022/04/29 02:06:55;;;;;;;;;26.00;23.50;;;;;17.69;41.51;102125.16;5121306;27;45404;-74
2022/04/29 02:09:21;;;;;;;;;25.75;21.75;;;;;17.68;41.63;102135.78;5139448;27;45392;-70
2022/04/29 02:12:05;;;;;;;;;25.00;21.75;;;;;17.74;41.74;102163.13;5139609;27;45248;-68
2022/04/29 02:14:39;;;;;;;;;25.50;22.00;;;;;17.76;41.85;102171.06;5139327;27;46226;-73
2022/04/29 02:17:06;;;;;;;;;23.25;22.00;;;;;17.73;42.04;102171.09;5139856;27;45798;-71
2022/04/29 02:19:33;;;;;;;;;27.50;23.75;;;;;17.71;42.20;102184.34;5138644;27;45497;-69
2022/04/29 02:22:00;;;;;;;;;25.75;20.75;;;;;17.69;41.79;102185.25;5120412;27;45555;-67
2022/04/29 02:24:26;;;;;;;;;28.75;22.00;;;;;17.68;42.00;102186.16;5138919;27;45556;-68
2022/04/29 02:26:53;;;;;;;;;28.75;22.75;;;;;17.52;42.09;102153.53;5139127;27;45368;-67
2022/04/29 02:29:19;;;;;;;;;30.00;26.25;;;;;17.60;42.02;102170.25;5139281;27;45526;-75
2022/04/29 02:31:45;;;;;;;;;25.50;22.75;;;;;17.15;42.18;102103.34;5139403;27;45504;-71
2022/04/29 02:34:11;;;;;;;;;24.00;20.50;;;;;17.46;42.24;102159.72;5139658;27;45380;-71
2022/04/29 02:36:37;;;;;;;;;20.75;19.75;;;;;17.41;42.42;102160.63;5140323;27;45377;-72
2022/04/29 02:39:03;;;;;;;;;26.00;23.25;;;;;17.45;42.23;102179.16;5138977;27;45471;-69
2022/04/29 02:41:29;;;;;;;;;25.50;23.00;;;;;17.45;42.44;102178.28;5139212;27;45484;-73
2022/04/29 02:43:55;;;;;;;;;25.75;19.75;;;;;17.47;42.40;102177.38;5138680;27;45390;-71
2022/04/29 02:46:20;;;;;;;;;25.00;21.00;;;;;17.43;42.45;102172.09;5139079;27;45256;-69
2022/04/29 02:48:48;;;;;;;;;25.25;21.75;;;;;17.46;42.16;102178.25;5138872;27;45443;-70
2022/04/29 02:51:15;;;;;;;;;23.25;22.50;;;;;17.39;42.23;102165.91;5139446;27;45462;-73
2022/04/29 02:53:42;;;;;;;;;23.50;22.25;;;;;17.45;42.21;102183.56;5138841;27;45535;-72
2022/04/29 02:56:07;;;;;;;;;27.50;24.75;;;;;17.35;42.54;102167.72;5138600;27;45481;-71
2022/04/29 02:58:33;;;;;;;;;19.00;19.00;;;;;17.44;42.49;102180.06;5138602;27;45593;-71
2022/04/29 03:00:58;;;;;;;;;26.25;21.75;;;;;17.45;42.46;102175.63;5138933;27;45547;-72
2022/04/29 03:03:24;;;;;;;;;23.75;20.75;;;;;17.37;42.36;102170.38;5137839;27;46110;-71
2022/04/29 03:05:49;;;;;;;;;26.25;22.75;;;;;17.43;42.83;102177.41;5138481;27;45444;-69
2022/04/29 03:08:15;;;;;;;;;24.75;23.75;;;;;17.36;42.33;102166.81;5138717;27;45478;-69
2022/04/29 03:10:40;;;;;;;;;24.75;24.25;;;;;17.21;42.33;102150.13;5138511;27;45569;-69
2022/04/29 03:13:06;;;;;;;;;25.25;22.25;;;;;17.22;42.24;102154.50;5138076;27;45488;-69
2022/04/29 03:15:33;;;;;;;;;24.25;21.75;;;;;17.32;42.49;102175.69;5137883;27;45388;-69
2022/04/29 03:20:43;;;;;;;;;31.00;24.00;;;;;17.34;42.80;102178.28;5138468;27;45328;-71
2022/04/29 03:23:10;;;;;;;;;27.75;26.25;;;;;17.33;42.16;102171.25;5138232;27;46309;-70
2022/04/29 03:25:36;;;;;;;;;23.75;21.50;;;;;17.29;42.42;102167.72;5114814;27;45470;-73
2022/04/29 03:28:03;;;;;;;;;27.00;23.00;;;;;17.29;42.45;102164.19;5115523;27;45447;-75
2022/04/29 03:30:28;;;;;;;;;26.50;22.00;;;;;17.29;42.41;102164.19;5135635;27;45437;-73
2022/04/29 03:32:56;;;;;;;;;29.25;22.00;;;;;17.26;42.11;102165.09;5120421;27;46549;-74
2022/04/29 03:35:22;;;;;;;;;23.25;20.50;;;;;17.13;42.51;102142.16;5121242;27;45461;-75
2022/04/29 03:37:51;;;;;;;;;30.25;25.75;;;;;17.22;42.68;102157.16;5122775;27;45472;-75
2022/04/29 03:40:21;;;;;;;;;29.00;24.50;;;;;17.14;42.51;102149.25;5122012;27;45450;-77
2022/04/29 03:42:55;;;;;;;;;27.25;24.00;;;;;17.17;42.52;102146.56;5146707;27;45490;-69
2022/04/29 03:45:23;;;;;;;;;32.00;24.00;;;;;17.17;42.34;102151.88;5150294;27;45309;-75
2022/04/29 03:47:50;;;;;;;;;28.00;24.75;;;;;16.78;42.50;102082.25;5146036;27;45372;-75
2022/04/29 03:50:15;;;;;;;;;31.75;24.25;;;;;17.16;42.45;102148.34;5145296;27;45471;-70
2022/04/29 03:52:52;;;;;;;;;20.00;19.50;;;;;17.15;42.61;102137.75;5144438;27;45574;-75
2022/04/29 03:55:24;;;;;;;;;24.25;20.25;;;;;17.10;42.21;102127.19;5145326;27;45421;-74
2022/04/29 03:57:50;;;;;;;;;27.50;22.50;;;;;17.11;42.37;102128.09;5145570;27;45445;-70
2022/04/29 04:00:16;;;;;;;;;27.50;23.75;;;;;17.11;42.31;102138.66;5125814;27;45537;-69
2022/04/29 04:02:42;;;;;;;;;29.75;26.75;;;;;17.05;42.61;102120.16;5126479;27;46633;-71
2022/04/29 04:05:09;;;;;;;;;31.50;23.50;;;;;17.03;42.76;102129.84;5145484;27;45241;-70
2022/04/29 04:07:35;;;;;;;;;28.50;23.75;;;;;16.95;42.60;102114.88;5145408;27;45195;-71
2022/04/29 04:10:00;;;;;;;;;24.50;22.25;;;;;17.04;43.24;102126.34;5144986;27;45362;-73
2022/04/29 04:12:26;;;;;;;;;26.00;24.25;;;;;17.06;42.51;102125.44;5142660;27;45402;-72
2022/04/29 04:14:52;;;;;;;;;27.50;21.50;;;;;17.04;42.77;102127.22;5140131;27;45348;-73
2022/04/29 04:17:18;;;;;;;;;27.25;25.00;;;;;16.96;42.44;102118.41;5132395;27;45366;-72
2022/04/29 04:19:43;;;;;;;;;33.25;26.50;;;;;16.86;43.81;102114.88;5129181;27;45456;-72
2022/04/29 04:22:09;;;;;;;;;24.75;20.75;;;;;16.94;42.82;102129.00;5131528;27;45558;-74
2022/04/29 04:24:35;;;;;;;;;22.25;20.50;;;;;16.84;42.81;102116.66;5142598;27;45338;-71
2022/04/29 04:27:02;;;;;;;;;28.25;25.50;;;;;16.87;42.66;102116.66;5122931;27;45354;-70
2022/04/29 04:29:28;;;;;;;;;29.25;27.00;;;;;16.87;43.10;102115.75;5132449;27;45542;-69
2022/04/29 04:31:53;;;;;;;;;33.00;25.25;;;;;16.91;43.07;102128.13;5123420;27;47824;-67
2022/04/29 04:37:03;;;;;;;;;25.25;22.75;;;;;16.65;43.48;102083.16;5125900;27;45431;-67
2022/04/29 04:39:29;;;;;;;;;28.00;21.75;;;;;16.92;42.78;102138.72;5124702;27;45470;-66
2022/04/29 04:41:55;;;;;;;;;32.50;26.00;;;;;16.82;42.97;102121.06;5119597;27;45991;-70
2022/04/29 04:44:20;;;;;;;;;26.00;25.50;;;;;16.85;42.73;102136.09;5120274;27;45467;-67
2022/04/29 04:46:46;;;;;;;;;27.50;24.25;;;;;16.80;42.76;102135.19;5120134;27;45511;-68
2022/04/29 04:49:13;;;;;;;;;27.50;23.00;;;;;16.82;42.73;102139.59;5120837;27;45892;-73
2022/04/29 04:51:39;;;;;;;;;27.25;22.75;;;;;16.77;43.12;102132.50;5120123;27;45509;-67
2022/04/29 04:54:05;;;;;;;;;24.25;23.25;;;;;16.80;43.12;102137.81;5130611;27;45420;-71
2022/04/29 04:56:31;;;;;;;;;27.25;21.00;;;;;16.81;43.20;102147.53;5122719;27;45537;-70
2022/04/29 04:58:57;;;;;;;;;26.25;22.75;;;;;16.79;42.98;102142.25;5140943;27;45432;-70
2022/04/29 05:01:25;;;;;;;;;27.00;22.75;;;;;16.67;42.98;102124.59;5140556;27;45433;-70
2022/04/29 05:03:51;;;;;;;;;24.50;22.00;;;;;16.61;43.00;102119.31;5138186;27;45568;-71
2022/04/29 05:06:18;;;;;;;;;23.00;22.50;;;;;16.55;43.04;102114.03;5141415;27;45294;-73
2022/04/29 05:08:43;;;;;;;;;27.00;22.50;;;;;16.64;42.84;102123.72;5126420;27;45550;-73
2022/04/29 05:11:09;;;;;;;;;32.50;23.75;;;;;16.69;42.84;102141.34;5125437;27;46225;-66
2022/04/29 05:13:35;;;;;;;;;35.00;25.50;;;;;16.47;42.86;102106.09;5121016;27;45448;-72
2022/04/29 05:16:00;;;;;;;;;25.75;23.25;;;;;16.65;42.92;102134.28;5120253;27;45495;-67
2022/04/29 05:18:53;;;;;;;;;25.25;23.00;;;;;16.69;43.05;102153.69;5123369;27;45482;-69
2022/04/29 05:21:19;;;;;;;;;27.00;24.75;;;;;16.60;42.71;102137.81;5139959;27;45478;-73
2022/04/29 05:23:45;;;;;;;;;29.75;27.25;;;;;16.66;42.94;102149.28;5130884;27;45376;-77
2022/04/29 05:26:11;;;;;;;;;29.50;25.75;;;;;16.65;42.80;102149.28;5142874;27;45262;-73
2022/04/29 05:28:37;;;;;;;;;23.25;18.75;;;;;16.68;42.85;102152.81;5125833;27;45468;-68
2022/04/29 05:31:03;;;;;;;;;30.75;29.25;;;;;16.63;43.81;102153.69;5121706;27;46279;-76
2022/04/29 05:33:31;;;;;;;;;25.00;22.75;;;;;16.63;43.96;102157.22;5124480;27;45357;-70
2022/04/29 05:36:04;;;;;;;;;36.25;30.00;;;;;16.66;43.85;102153.72;5122347;27;45407;-66
2022/04/29 05:42:14;;;;;;;;;23.75;19.50;;;;;16.66;43.82;102157.22;5121930;27;45459;-75
2022/04/29 05:44:04;;;;;;;;;26.50;25.50;;;;;16.66;43.46;102157.22;5081412;27;45441;-69
2022/04/29 05:46:31;;;;;;;;;29.50;24.25;;;;;16.61;43.47;102147.50;5122812;27;45339;-72
2022/04/29 05:48:56;;;;;;;;;26.25;21.75;;;;;16.55;43.36;102135.19;5109836;27;45740;-75
2022/04/29 05:51:23;;;;;;;;;35.75;26.75;;;;;16.68;43.22;102158.13;5132333;27;45278;-67
2022/04/29 05:53:49;;;;;;;;;27.25;24.50;;;;;16.53;43.66;102131.66;5140073;27;45451;-77
2022/04/29 05:56:15;;;;;;;;;28.75;25.50;;;;;16.65;43.20;102149.28;5139893;27;44816;-74
2022/04/29 05:58:40;;;;;;;;;24.00;22.25;;;;;16.73;43.41;102168.69;5122905;27;45461;-76
2022/04/29 06:01:06;;;;;;;;;24.25;22.00;;;;;16.78;42.94;102173.97;5129531;27;45443;-77
2022/04/29 06:03:32;;;;;;;;;20.75;18.25;;;;;16.62;43.26;102144.00;5132007;27;45511;-73
2022/04/29 06:05:58;;;;;;;;;29.25;27.25;;;;;16.78;43.38;102181.91;5124277;27;45437;-76
2022/04/29 06:08:23;;;;;;;;;26.50;22.50;;;;;16.80;43.36;102189.00;5139762;27;45485;-75
2022/04/29 06:10:49;;;;;;;;;24.50;20.50;;;;;16.78;43.16;102184.56;5137179;27;45495;-77
2022/04/29 06:13:14;;;;;;;;;32.75;23.25;;;;;16.83;43.16;102198.69;5118834;27;45559;-67
2022/04/29 06:15:40;;;;;;;;;25.25;23.00;;;;;16.72;42.77;102177.50;5118116;27;45861;-67
2022/04/29 06:18:06;;;;;;;;;25.00;22.50;;;;;16.81;43.07;102192.53;5118322;27;45495;-71
2022/04/29 06:20:31;;;;;;;;;26.25;23.00;;;;;16.74;42.95;102173.09;5117836;27;46481;-74
2022/04/29 06:22:57;;;;;;;;;26.50;24.75;;;;;16.84;42.95;102188.09;5118936;27;45528;-76
2022/04/29 06:25:24;;;;;;;;;21.75;21.00;;;;;16.85;42.88;102189.00;5118519;27;45448;-73
2022/04/29 06:27:50;;;;;;;;;23.50;21.50;;;;;16.85;42.78;102192.53;5137038;27;45527;-68
2022/04/29 06:30:16;;;;;;;;;22.50;21.25;;;;;16.86;43.00;102196.91;5152877;27;46329;-74
2022/04/29 06:32:42;;;;;;;;;27.00;24.50;;;;;16.50;43.38;102132.53;5121311;27;45577;-76
2022/04/29 06:35:08;;;;;;;;;25.00;23.75;;;;;16.88;42.62;102197.81;5144906;27;45612;-73
2022/04/29 06:37:35;;;;;;;;;22.75;22.50;;;;;16.71;42.75;102167.81;5150111;27;45469;-79
2022/04/29 06:40:02;;;;;;;;;23.25;21.75;;;;;16.89;42.54;102196.91;5144300;27;45559;-80
2022/04/29 06:42:28;;;;;;;;;26.50;23.50;;;;;16.56;42.85;102136.94;5120897;27;45450;-76
2022/04/29 06:44:54;;;;;;;;;27.00;21.25;;;;;16.56;42.74;102141.34;5146170;27;45532;-76
2022/04/29 06:47:20;;;;;;;;;25.75;22.75;;;;;16.93;42.89;102203.97;5139184;27;45366;-76
2022/04/29 06:49:46;;;;;;;;;27.00;26.75;;;;;16.83;42.91;102199.56;5137718;27;45441;-69
2022/04/29 06:52:15;;;;;;;;;26.00;24.00;;;;;16.82;42.92;102210.16;5130991;27;45493;-68
2022/04/29 06:54:41;;;;;;;;;28.75;26.75;;;;;16.83;42.71;102206.66;5118471;27;45473;-68
2022/04/29 06:57:09;;;;;;;;;38.50;32.00;;;;;16.80;42.70;102201.31;5118592;27;45389;-68
2022/04/29 06:59:35;;;;;;;;;32.00;28.25;;;;;16.30;42.98;102166.91;5118415;27;47126;-70
2022/04/29 07:02:00;;;;;;;;;28.75;22.25;;;;;16.30;43.37;102171.31;5137753;27;45794;-69
2022/04/29 07:04:28;;;;;;;;;33.75;29.50;;;;;16.36;43.27;102178.38;5122269;27;45450;-68
2022/04/29 07:07:16;;;;;;;;;33.50;30.25;;;;;16.31;43.99;102208.34;5137387;27;45465;-76
2022/04/29 07:10:09;;;;;;;;;36.50;30.50;;;;;16.16;44.57;102207.41;5142725;27;46266;-69
2022/04/29 07:12:49;;;;;;;;;28.25;26.50;;;;;15.78;44.11;102136.84;5121184;27;45921;-68
2022/04/29 07:15:24;;;;;;;;;28.50;24.00;;;;;16.26;44.36;102210.09;5134627;27;45558;-74
2022/04/29 07:18:04;;;;;;;;;33.50;30.25;;;;;16.07;44.33;102193.31;5101691;27;45373;-71
2022/04/29 07:20:40;;;;;;;;;38.00;31.75;;;;;16.21;44.65;102210.97;5122962;27;45491;-72
2022/04/29 07:23:06;;;;;;;;;26.75;23.25;;;;;16.20;44.19;102206.53;5120274;27;46020;-77
2022/04/29 07:25:36;;;;;;;;;29.25;26.00;;;;;16.32;44.34;102214.50;5119858;27;45584;-74
2022/04/29 07:28:04;;;;;;;;;28.50;24.00;;;;;16.39;44.19;102218.91;5121812;27;45680;-78
2022/04/29 07:30:39;;;;;;;;;30.25;23.50;;;;;16.23;43.86;102182.75;5118838;27;45445;-75
2022/04/29 07:33:05;;;;;;;;;33.75;26.75;;;;;16.24;43.82;102184.53;5131031;27;45522;-76
2022/04/29 07:43:55;;;;;;;;;29.50;25.25;;;;;16.69;44.07;102228.66;5135822;27;45396;-77
2022/04/29 07:46:26;;;;;;;;;31.75;24.50;;;;;16.51;43.93;102187.22;5142343;27;45480;-76
2022/04/29 07:48:53;;;;;;;;;30.50;26.50;;;;;16.66;43.94;102214.56;5142328;27;45644;-77
2022/04/29 07:51:21;;;;;;;;;26.50;25.00;;;;;16.67;43.80;102201.31;5141052;27;45529;-76
2022/04/29 07:53:50;;;;;;;;;24.25;23.50;;;;;16.88;43.92;102224.28;5141371;27;45413;-74
2022/04/29 07:56:17;;;;;;;;;30.50;26.50;;;;;16.62;43.62;102175.75;5141972;27;45320;-79
2022/04/29 07:58:43;;;;;;;;;29.75;28.25;;;;;16.83;43.76;102206.66;5141485;27;45437;-77
2022/04/29 08:01:11;;;;;;;;;27.50;25.00;;;;;16.71;43.90;102188.97;5122689;27;45422;-76
2022/04/29 08:03:38;;;;;;;;;29.25;24.00;;;;;16.73;43.96;102188.09;5122265;27;45909;-75
2022/04/29 08:06:06;;;;;;;;;32.75;29.75;;;;;16.98;43.81;102229.56;5143062;27;45361;-72
2022/04/29 08:08:33;;;;;;;;;31.25;26.50;;;;;17.01;43.70;102225.13;5141171;27;45702;-75
2022/04/29 08:10:59;;;;;;;;;29.75;25.75;;;;;17.02;43.52;102210.16;5142641;27;45658;-75
2022/04/29 08:13:26;;;;;;;;;32.50;28.00;;;;;17.05;43.90;102205.72;5142857;27;45283;-75
2022/04/29 08:15:51;;;;;;;;;32.50;27.75;;;;;17.21;43.77;102219.81;5141842;27;45347;-76
2022/04/29 08:18:21;;;;;;;;;35.25;29.25;;;;;17.29;43.61;102225.09;5141013;27;45346;-77
2022/04/29 08:20:47;;;;;;;;;24.50;24.50;;;;;17.34;43.36;102234.78;5140899;27;45377;-73
2022/04/29 08:23:12;;;;;;;;;33.75;30.25;;;;;17.41;43.45;102225.06;5140657;27;45492;-71
2022/04/29 08:25:38;;;;;;;;;29.25;25.50;;;;;17.48;43.26;102229.47;5114181;27;45808;-74
2022/04/29 08:28:04;;;;;;;;;38.25;30.00;;;;;17.34;43.16;102192.41;5120410;27;45845;-69
2022/04/29 08:30:31;;;;;;;;;25.50;22.25;;;;;17.61;42.58;102230.31;5118336;27;46861;-76
2022/04/29 08:32:58;;;;;;;;;29.50;28.00;;;;;17.64;42.77;102230.31;5119904;27;45375;-72
2022/04/29 08:35:30;;;;;;;;;28.00;26.25;;;;;17.67;42.63;102234.69;5121601;27;45877;-76
2022/04/29 08:37:59;;;;;;;;;36.75;31.25;;;;;17.68;42.43;102233.84;5122094;27;45503;-76
2022/04/29 08:40:29;;;;;;;;;39.75;30.75;;;;;17.39;42.99;102203.00;5101117;27;45500;-73
2022/04/29 08:42:55;;;;;;;;;37.50;31.75;;;;;17.27;42.93;102177.44;5128757;27;45491;-74
2022/04/29 08:45:22;;;;;;;;;46.75;37.50;;;;;17.65;43.05;102239.13;5139827;27;45517;-74
2022/04/29 08:47:48;;;;;;;;;43.00;35.50;;;;;17.45;43.08;102212.72;5140977;27;45408;-78
2022/04/29 08:50:20;;;;;;;;;34.50;30.50;;;;;17.65;43.04;102226.75;5127972;27;46514;-76
2022/04/29 08:52:54;;;;;;;;;36.50;32.75;;;;;17.85;42.71;102239.97;5115904;27;45523;-71
2022/04/29 09:00:49;;;;;;;;;30.00;26.25;;;;;18.27;42.33;102238.00;5128306;27;45616;-75
2022/04/29 09:03:22;;;;;;;;;31.00;27.00;;;;;18.52;41.96;102232.50;5120738;27;45524;-73
2022/04/29 09:05:48;;;;;;;;;15.50;15.50;;;;;18.71;41.92;102239.44;5117620;27;45474;-72
2022/04/29 09:08:16;;;;;;;;;38.75;29.25;;;;;18.84;41.34;102222.56;5121140;27;45579;-71
2022/04/29 09:10:59;;;;;;;;;37.50;27.50;;;;;18.96;41.27;102229.53;5130066;27;46166;-68
2022/04/29 09:13:27;;;;;;;;;43.00;36.25;;;;;19.05;41.08;102231.22;5139993;27;45775;-69
2022/04/29 09:15:58;;;;;;;;;35.00;31.25;;;;;19.07;40.81;102227.66;5140346;27;45412;-71
2022/04/29 09:18:41;;;;;;;;;35.00;29.00;;;;;19.14;40.76;102219.63;5135209;27;45895;-67
2022/04/29 09:21:09;;;;;;;;;36.50;31.75;;;;;19.15;40.55;102214.31;5131656;27;45662;-69
2022/04/29 09:23:43;;;;;;;;;33.25;30.25;;;;;19.15;40.82;102198.38;5125678;27;45499;-68
2022/04/29 09:26:26;;;;;;;;;37.00;31.50;;;;;19.36;40.41;102205.25;5133938;27;45359;-68
2022/04/29 09:29:10;;;;;;;;;36.00;29.75;;;;;19.47;40.45;102194.47;5119183;27;45544;-70
2022/04/29 09:31:58;;;;;;;;;46.00;34.75;;;;;19.65;39.98;102210.19;5133974;27;45715;-73
2022/04/29 09:34:45;;;;;;;;;45.25;33.75;;;;;19.70;39.91;102202.19;5134419;27;45795;-73
2022/04/29 09:37:15;;;;;;;;;49.50;37.25;;;;;19.63;39.73;102203.16;5123538;27;45661;-68
2022/04/29 09:40:05;;;;;;;;;39.25;33.00;;;;;19.44;39.70;102174.13;5124407;27;45496;-73
2022/04/29 09:42:45;;;;;;;;;40.75;34.50;;;;;19.67;39.65;102203.09;5130828;27;47670;-69
2022/04/29 09:45:13;;;;;;;;;41.50;32.75;;;;;19.49;39.94;102164.31;5130209;27;45593;-69
2022/04/29 09:47:38;;;;;;;;;43.00;33.00;;;;;19.88;39.43;102207.28;5119147;27;45429;-69
2022/04/29 09:50:04;;;;;;;;;39.50;31.50;;;;;19.95;39.70;102196.56;5120797;27;45808;-68
2022/04/29 09:52:30;;;;;;;;;35.25;30.75;;;;;20.07;39.21;102191.97;5118618;27;46271;-71
2022/04/29 09:55:09;;;;;;;;;38.25;33.25;;;;;20.22;38.79;102203.28;5130626;27;45316;-75
2022/04/29 09:57:46;;;;;;;;;46.00;37.00;;;;;20.06;38.68;102195.50;5128397;27;45383;-72
2022/04/29 10:00:13;;;;;;;;;42.00;32.50;;;;;20.16;39.03;102200.69;5118592;27;45449;-71
2022/04/29 10:02:38;;;;;;;;;44.75;33.75;;;;;19.99;38.86;102177.88;5117751;27;45452;-71
2022/04/29 10:05:04;;;;;;;;;34.50;31.00;;;;;20.02;38.97;102171.63;5117450;27;45514;-68
2022/04/29 10:07:34;;;;;;;;;31.33;25.67;;;;;20.24;38.79;102198.78;5117318;27;45505;-68
2022/04/29 10:10:02;;;;;;;;;54.00;41.00;;;;;20.00;38.70;102149.50;5098626;27;45550;-69
2022/04/29 10:12:29;;;;;;;;;42.00;34.50;;;;;20.21;38.64;102193.50;5117910;27;46306;-69
2022/04/29 10:15:05;;;;;;;;;37.25;34.00;;;;;20.25;38.75;102204.09;5117937;27;45521;-69
2022/04/29 10:23:11;;;;;;;;;37.75;33.00;;;;;20.38;39.06;102203.91;5118230;27;46020;-70
2022/04/29 10:25:47;;;;;;;;;36.50;30.75;;;;;20.34;39.41;102182.66;5117896;27;45456;-70
2022/04/29 10:28:19;;;;;;;;;28.75;27.00;;;;;20.51;40.01;102205.47;5118201;27;45299;-74
2022/04/29 10:30:45;;;;;;;;;30.00;27.33;;;;;20.69;40.22;102206.97;5117999;27;45544;-70
2022/04/29 10:33:13;;;;;;;;;29.67;25.67;;;;;20.81;39.05;102196.13;5099490;27;45513;-68
2022/04/29 10:35:42;;;;;;;;;27.00;27.00;;;;;20.98;38.47;102200.28;5118340;27;45508;-69
2022/04/29 10:38:31;;;;;;;;;28.33;24.67;;;;;21.06;38.14;102209.88;5118404;27;45374;-70
2022/04/29 10:41:12;;;;;;;;;36.75;33.00;;;;;21.16;38.27;102203.47;5117911;27;45549;-71
2022/04/29 10:43:51;;;;;;;;;33.67;31.33;;;;;21.31;38.54;102198.78;5117912;27;45588;-70
2022/04/29 10:46:26;;;;;;;;;30.33;25.67;;;;;21.42;37.59;102193.25;5118298;27;45279;-70
2022/04/29 10:48:53;;;;;;;;;30.67;24.33;;;;;21.48;37.43;102188.69;5118143;27;45468;-74
2022/04/29 10:51:41;;;;;;;;;41.75;33.00;;;;;21.46;36.31;102185.16;5117784;27;45515;-71
2022/04/29 10:54:07;;;;;;;;;25.00;25.00;;;;;21.54;37.49;102179.66;5117391;27;46234;-70
2022/04/29 10:56:35;;;;;;;;;27.67;27.33;;;;;21.50;37.21;102164.66;5117946;27;45510;-69
2022/04/29 10:59:07;;;;;;;;;33.67;30.67;;;;;21.78;37.11;102186.25;5118253;27;45453;-74
2022/04/29 11:01:34;;;;;;;;;26.67;24.00;;;;;21.81;36.42;102180.88;5118574;27;45358;-74
2022/04/29 11:04:01;;;;;;;;;42.75;35.00;;;;;21.86;36.23;102192.31;5098806;27;48273;-75
2022/04/29 11:06:37;;;;;;;;;38.33;31.67;;;;;21.72;36.74;102184.59;5117431;27;45583;-73
2022/04/29 11:09:30;;;;;;;;;30.00;24.67;;;;;21.83;35.92;102180.81;5118307;27;45463;-73
2022/04/29 11:11:57;;;;;;;;;31.67;30.00;;;;;21.77;35.43;102179.19;5118319;27;45556;-69
2022/04/29 11:14:23;;;;;;;;;29.33;27.67;;;;;21.91;35.46;102177.09;5117298;27;46107;-75
2022/04/29 11:16:55;;;;;;;;;35.33;32.33;;;;;21.89;35.47;102170.03;5118260;27;45374;-69
2022/04/29 11:19:26;;;;;;;;;34.33;31.00;;;;;21.82;35.68;102145.28;5118192;27;45643;-71
2022/04/29 11:24:46;;;;;;;;;23.33;21.33;;;;;22.33;35.33;102155.69;5118933;27;45679;-74
2022/04/29 11:27:12;;;;;;;;;46.25;38.25;;;;;22.05;34.57;102131.41;5118762;27;45291;-71
2022/04/29 11:29:42;;;;;;;;;43.67;34.33;;;;;22.06;34.88;102151.84;5117761;27;45427;-70
2022/04/29 11:32:09;;;;;;;;;41.67;33.33;;;;;21.93;35.16;102139.72;5099559;27;45523;-69
2022/04/29 11:34:35;;;;;;;;;38.33;32.67;;;;;22.11;35.01;102149.06;5099433;27;46007;-70
2022/04/29 11:37:01;;;;;;;;;32.00;28.00;;;;;22.18;34.92;102148.00;5098979;27;45494;-69
2022/04/29 11:39:26;;;;;;;;;29.00;24.00;;;;;22.29;34.49;102143.31;5118007;27;45456;-77
2022/04/29 11:42:03;;;;;;;;;27.00;23.33;;;;;22.43;34.35;102140.31;5118295;27;45374;-78
2022/04/29 11:44:36;;;;;;;;;25.33;22.33;;;;;22.56;34.35;102151.53;5118825;27;45475;-73
2022/04/29 11:47:03;;;;;;;;;47.50;35.75;;;;;22.38;33.72;102124.41;5118328;27;45302;-74